De Witt, Missouri
Current Conditions -  °F | °C
As of 4:15 AM on Thursday 29 Jan 2015 (Local Time) from KVER Reporting Station
Overcast Overcast  
Wind Chill: 36°   Ceiling: 2300
Heat Index: 44°   Visibility: 10mi
Dew Point: 34°   Wind: 17mph
Humidity: 70%   Direction: 320°NW
Pressure: 29.96"   Gusts: 29mph
Location:  39.38°N, 93.22°W
Report Text: KVER 291015Z AUTO 32015G25KT 10SM OVC023 07/01 A2996 RMK AO2 T00650013
Loading
Personal Weather Stations






























Interactive Weather Map New forecast layout! Learn more

10-Day Weather Forecast

Advertisements
Track Severe Weather on mobile